sensor_id;sensor_type;location;lat;lon;timestamp;P1;durP1;ratioP1;P2;durP2;ratioP2
59530;SDS011;45349;48.692;8.186;2023-09-18T00:00:58;8.77;;;2.60;;
59530;SDS011;45349;48.692;8.186;2023-09-18T00:03:25;11.53;;;2.83;;
59530;SDS011;45349;48.692;8.186;2023-09-18T00:06:16;8.77;;;2.73;;
59530;SDS011;45349;48.692;8.186;2023-09-18T00:08:43;9.37;;;2.90;;
59530;SDS011;45349;48.692;8.186;2023-09-18T00:11:10;12.10;;;3.63;;
59530;SDS011;45349;48.692;8.186;2023-09-18T00:13:38;8.20;;;2.90;;
59530;SDS011;45349;48.692;8.186;2023-09-18T00:16:05;6.60;;;3.30;;
59530;SDS011;45349;48.692;8.186;2023-09-18T00:18:31;6.30;;;3.07;;
59530;SDS011;45349;48.692;8.186;2023-09-18T00:20:58;8.13;;;3.73;;
59530;SDS011;45349;48.692;8.186;2023-09-18T00:23:25;6.80;;;3.07;;
59530;SDS011;45349;48.692;8.186;2023-09-18T00:26:17;7.50;;;3.10;;
59530;SDS011;45349;48.692;8.186;2023-09-18T00:28:50;8.43;;;3.60;;
59530;SDS011;45349;48.692;8.186;2023-09-18T00:31:18;9.57;;;3.60;;
59530;SDS011;45349;48.692;8.186;2023-09-18T00:33:46;10.03;;;4.10;;
59530;SDS011;45349;48.692;8.186;2023-09-18T00:36:13;6.83;;;3.20;;
59530;SDS011;45349;48.692;8.186;2023-09-18T00:38:40;7.40;;;3.47;;
59530;SDS011;45349;48.692;8.186;2023-09-18T00:41:06;9.57;;;3.57;;
59530;SDS011;45349;48.692;8.186;2023-09-18T00:43:33;12.37;;;3.87;;
59530;SDS011;45349;48.692;8.186;2023-09-18T00:46:01;8.43;;;3.43;;
59530;SDS011;45349;48.692;8.186;2023-09-18T00:48:28;10.00;;;3.50;;
59530;SDS011;45349;48.692;8.186;2023-09-18T00:50:58;8.90;;;4.13;;
59530;SDS011;45349;48.692;8.186;2023-09-18T00:53:24;3.97;;;3.17;;
59530;SDS011;45349;48.692;8.186;2023-09-18T00:55:58;9.63;;;2.80;;
59530;SDS011;45349;48.692;8.186;2023-09-18T00:58:26;8.57;;;3.27;;
59530;SDS011;45349;48.692;8.186;2023-09-18T01:00:58;5.73;;;3.00;;
59530;SDS011;45349;48.692;8.186;2023-09-18T01:03:26;9.30;;;2.63;;
59530;SDS011;45349;48.692;8.186;2023-09-18T01:05:59;8.30;;;2.90;;
59530;SDS011;45349;48.692;8.186;2023-09-18T01:08:26;6.80;;;3.00;;
59530;SDS011;45349;48.692;8.186;2023-09-18T01:11:00;7.43;;;3.17;;
59530;SDS011;45349;48.692;8.186;2023-09-18T01:13:35;8.23;;;3.27;;
59530;SDS011;45349;48.692;8.186;2023-09-18T01:16:06;7.97;;;3.60;;
59530;SDS011;45349;48.692;8.186;2023-09-18T01:18:37;7.03;;;3.30;;
59530;SDS011;45349;48.692;8.186;2023-09-18T01:21:04;8.50;;;2.53;;
59530;SDS011;45349;48.692;8.186;2023-09-18T01:23:32;6.83;;;2.80;;
59530;SDS011;45349;48.692;8.186;2023-09-18T01:25:58;10.77;;;3.40;;
59530;SDS011;45349;48.692;8.186;2023-09-18T01:28:25;10.47;;;3.80;;
59530;SDS011;45349;48.692;8.186;2023-09-18T01:31:16;8.20;;;3.73;;
59530;SDS011;45349;48.692;8.186;2023-09-18T01:33:43;10.40;;;3.57;;
59530;SDS011;45349;48.692;8.186;2023-09-18T01:36:12;7.83;;;3.37;;
59530;SDS011;45349;48.692;8.186;2023-09-18T01:38:41;7.13;;;2.47;;
59530;SDS011;45349;48.692;8.186;2023-09-18T01:41:09;9.23;;;2.50;;
59530;SDS011;45349;48.692;8.186;2023-09-18T01:43:36;14.80;;;2.50;;
59530;SDS011;45349;48.692;8.186;2023-09-18T01:46:03;9.20;;;2.70;;
59530;SDS011;45349;48.692;8.186;2023-09-18T01:48:30;7.93;;;2.30;;
59530;SDS011;45349;48.692;8.186;2023-09-18T01:50:58;6.37;;;2.50;;
59530;SDS011;45349;48.692;8.186;2023-09-18T01:53:25;8.40;;;2.10;;
59530;SDS011;45349;48.692;8.186;2023-09-18T01:56:18;11.30;;;2.53;;
59530;SDS011;45349;48.692;8.186;2023-09-18T01:58:44;8.60;;;2.50;;
59530;SDS011;45349;48.692;8.186;2023-09-18T02:01:11;9.20;;;2.67;;
59530;SDS011;45349;48.692;8.186;2023-09-18T02:03:38;6.20;;;2.43;;
59530;SDS011;45349;48.692;8.186;2023-09-18T02:06:06;4.27;;;2.63;;
59530;SDS011;45349;48.692;8.186;2023-09-18T02:08:33;6.47;;;2.63;;
59530;SDS011;45349;48.692;8.186;2023-09-18T02:11:00;4.83;;;2.30;;
59530;SDS011;45349;48.692;8.186;2023-09-18T02:16:21;7.17;;;2.60;;
59530;SDS011;45349;48.692;8.186;2023-09-18T02:18:49;8.50;;;2.57;;
59530;SDS011;45349;48.692;8.186;2023-09-18T02:21:18;7.20;;;2.47;;
59530;SDS011;45349;48.692;8.186;2023-09-18T02:23:48;13.60;;;4.03;;
59530;SDS011;45349;48.692;8.186;2023-09-18T02:26:15;6.70;;;2.40;;
59530;SDS011;45349;48.692;8.186;2023-09-18T02:28:41;9.30;;;2.63;;
59530;SDS011;45349;48.692;8.186;2023-09-18T02:31:09;8.80;;;2.53;;
59530;SDS011;45349;48.692;8.186;2023-09-18T02:33:36;11.73;;;3.00;;
59530;SDS011;45349;48.692;8.186;2023-09-18T02:36:03;7.33;;;2.97;;
59530;SDS011;45349;48.692;8.186;2023-09-18T02:38:30;9.97;;;2.70;;
59530;SDS011;45349;48.692;8.186;2023-09-18T02:40:58;7.30;;;3.00;;
59530;SDS011;45349;48.692;8.186;2023-09-18T02:43:25;12.37;;;3.30;;
59530;SDS011;45349;48.692;8.186;2023-09-18T02:45:58;4.50;;;2.90;;
59530;SDS011;45349;48.692;8.186;2023-09-18T02:48:26;11.20;;;2.90;;
59530;SDS011;45349;48.692;8.186;2023-09-18T02:50:58;9.87;;;3.37;;
59530;SDS011;45349;48.692;8.186;2023-09-18T02:53:25;8.87;;;3.13;;
59530;SDS011;45349;48.692;8.186;2023-09-18T02:55:59;8.90;;;2.87;;
59530;SDS011;45349;48.692;8.186;2023-09-18T02:58:26;7.83;;;3.00;;
59530;SDS011;45349;48.692;8.186;2023-09-18T03:04:05;8.13;;;3.20;;
59530;SDS011;45349;48.692;8.186;2023-09-18T03:06:32;8.63;;;3.30;;
59530;SDS011;45349;48.692;8.186;2023-09-18T03:08:59;10.70;;;3.20;;
59530;SDS011;45349;48.692;8.186;2023-09-18T03:11:26;9.63;;;3.03;;
59530;SDS011;45349;48.692;8.186;2023-09-18T03:13:54;13.23;;;3.43;;
59530;SDS011;45349;48.692;8.186;2023-09-18T03:16:20;10.60;;;3.10;;
59530;SDS011;45349;48.692;8.186;2023-09-18T03:18:48;6.17;;;3.13;;
59530;SDS011;45349;48.692;8.186;2023-09-18T03:21:16;21.20;;;2.80;;
59530;SDS011;45349;48.692;8.186;2023-09-18T03:23:42;22.60;;;4.43;;
59530;SDS011;45349;48.692;8.186;2023-09-18T03:26:09;19.67;;;4.07;;
59530;SDS011;45349;48.692;8.186;2023-09-18T03:28:36;19.70;;;4.80;;
59530;SDS011;45349;48.692;8.186;2023-09-18T03:31:03;14.03;;;4.77;;
59530;SDS011;45349;48.692;8.186;2023-09-18T03:33:31;13.30;;;4.23;;
59530;SDS011;45349;48.692;8.186;2023-09-18T03:35:58;19.13;;;4.00;;
59530;SDS011;45349;48.692;8.186;2023-09-18T03:38:28;16.13;;;3.93;;
59530;SDS011;45349;48.692;8.186;2023-09-18T03:40:59;20.80;;;4.50;;
59530;SDS011;45349;48.692;8.186;2023-09-18T03:43:26;16.70;;;3.77;;
59530;SDS011;45349;48.692;8.186;2023-09-18T03:46:05;13.80;;;3.67;;
59530;SDS011;45349;48.692;8.186;2023-09-18T03:48:39;10.93;;;3.87;;
59530;SDS011;45349;48.692;8.186;2023-09-18T03:51:06;15.20;;;3.03;;
59530;SDS011;45349;48.692;8.186;2023-09-18T03:53:35;10.53;;;2.47;;
59530;SDS011;45349;48.692;8.186;2023-09-18T03:56:02;9.33;;;2.40;;
59530;SDS011;45349;48.692;8.186;2023-09-18T03:58:28;17.10;;;2.60;;
59530;SDS011;45349;48.692;8.186;2023-09-18T04:00:58;13.53;;;2.53;;
59530;SDS011;45349;48.692;8.186;2023-09-18T04:03:24;10.77;;;2.33;;
59530;SDS011;45349;48.692;8.186;2023-09-18T04:06:16;8.03;;;2.00;;
59530;SDS011;45349;48.692;8.186;2023-09-18T04:08:47;12.93;;;3.07;;
59530;SDS011;45349;48.692;8.186;2023-09-18T04:11:13;9.50;;;2.57;;
59530;SDS011;45349;48.692;8.186;2023-09-18T04:13:40;13.20;;;2.50;;
59530;SDS011;45349;48.692;8.186;2023-09-18T04:16:06;16.70;;;2.40;;
59530;SDS011;45349;48.692;8.186;2023-09-18T04:18:33;10.50;;;2.10;;
59530;SDS011;45349;48.692;8.186;2023-09-18T04:21:00;12.07;;;2.07;;
59530;SDS011;45349;48.692;8.186;2023-09-18T04:23:26;10.10;;;2.30;;
59530;SDS011;45349;48.692;8.186;2023-09-18T04:26:00;5.63;;;1.70;;
59530;SDS011;45349;48.692;8.186;2023-09-18T04:28:26;8.23;;;1.63;;
59530;SDS011;45349;48.692;8.186;2023-09-18T04:30:58;7.15;;;2.00;;
59530;SDS011;45349;48.692;8.186;2023-09-18T04:33:26;7.67;;;2.33;;
59530;SDS011;45349;48.692;8.186;2023-09-18T04:35:58;6.60;;;1.97;;
59530;SDS011;45349;48.692;8.186;2023-09-18T04:38:25;7.73;;;1.90;;
59530;SDS011;45349;48.692;8.186;2023-09-18T04:40:59;7.87;;;1.90;;
59530;SDS011;45349;48.692;8.186;2023-09-18T04:43:27;6.63;;;1.23;;
59530;SDS011;45349;48.692;8.186;2023-09-18T04:46:00;3.73;;;1.47;;
59530;SDS011;45349;48.692;8.186;2023-09-18T04:48:29;6.20;;;1.30;;
59530;SDS011;45349;48.692;8.186;2023-09-18T04:50:59;9.60;;;1.30;;
59530;SDS011;45349;48.692;8.186;2023-09-18T04:53:27;3.20;;;0.90;;
59530;SDS011;45349;48.692;8.186;2023-09-18T04:55:59;9.23;;;1.30;;
59530;SDS011;45349;48.692;8.186;2023-09-18T04:58:26;5.10;;;1.23;;
59530;SDS011;45349;48.692;8.186;2023-09-18T05:00:59;8.07;;;0.77;;
59530;SDS011;45349;48.692;8.186;2023-09-18T05:03:28;3.73;;;1.10;;
59530;SDS011;45349;48.692;8.186;2023-09-18T05:05:58;4.60;;;1.00;;
59530;SDS011;45349;48.692;8.186;2023-09-18T05:08:28;4.90;;;0.80;;
59530;SDS011;45349;48.692;8.186;2023-09-18T05:10:59;1.87;;;0.70;;
59530;SDS011;45349;48.692;8.186;2023-09-18T05:13:26;4.37;;;1.07;;
59530;SDS011;45349;48.692;8.186;2023-09-18T05:15:58;4.20;;;0.70;;
59530;SDS011;45349;48.692;8.186;2023-09-18T05:18:26;4.33;;;0.63;;
59530;SDS011;45349;48.692;8.186;2023-09-18T05:20:58;7.63;;;0.93;;
59530;SDS011;45349;48.692;8.186;2023-09-18T05:23:29;3.40;;;0.60;;
59530;SDS011;45349;48.692;8.186;2023-09-18T05:25:59;3.83;;;0.70;;
59530;SDS011;45349;48.692;8.186;2023-09-18T05:28:26;2.30;;;0.70;;
59530;SDS011;45349;48.692;8.186;2023-09-18T05:30:58;4.10;;;0.60;;
59530;SDS011;45349;48.692;8.186;2023-09-18T05:33:24;4.20;;;0.73;;
59530;SDS011;45349;48.692;8.186;2023-09-18T05:36:16;5.33;;;0.80;;
59530;SDS011;45349;48.692;8.186;2023-09-18T05:38:43;2.67;;;0.63;;
59530;SDS011;45349;48.692;8.186;2023-09-18T05:41:11;3.07;;;0.60;;
59530;SDS011;45349;48.692;8.186;2023-09-18T05:43:37;3.27;;;0.97;;
59530;SDS011;45349;48.692;8.186;2023-09-18T05:46:04;6.03;;;1.10;;
59530;SDS011;45349;48.692;8.186;2023-09-18T05:48:30;4.00;;;0.70;;
59530;SDS011;45349;48.692;8.186;2023-09-18T05:50:58;3.93;;;0.90;;
59530;SDS011;45349;48.692;8.186;2023-09-18T05:53:24;4.03;;;1.50;;
59530;SDS011;45349;48.692;8.186;2023-09-18T05:56:17;4.27;;;0.97;;
59530;SDS011;45349;48.692;8.186;2023-09-18T05:58:44;5.93;;;0.90;;
59530;SDS011;45349;48.692;8.186;2023-09-18T06:01:10;2.30;;;1.00;;
59530;SDS011;45349;48.692;8.186;2023-09-18T06:03:37;3.20;;;1.00;;
59530;SDS011;45349;48.692;8.186;2023-09-18T06:06:04;4.93;;;1.40;;
59530;SDS011;45349;48.692;8.186;2023-09-18T06:08:31;5.97;;;0.90;;
59530;SDS011;45349;48.692;8.186;2023-09-18T06:10:58;5.13;;;1.10;;
59530;SDS011;45349;48.692;8.186;2023-09-18T06:13:27;2.50;;;0.73;;
59530;SDS011;45349;48.692;8.186;2023-09-18T06:15:58;6.63;;;1.33;;
59530;SDS011;45349;48.692;8.186;2023-09-18T06:18:24;7.20;;;0.97;;
59530;SDS011;45349;48.692;8.186;2023-09-18T06:21:16;7.13;;;0.80;;
59530;SDS011;45349;48.692;8.186;2023-09-18T06:23:43;4.20;;;1.17;;
59530;SDS011;45349;48.692;8.186;2023-09-18T06:26:09;4.13;;;0.93;;
59530;SDS011;45349;48.692;8.186;2023-09-18T06:28:37;2.97;;;1.10;;
59530;SDS011;45349;48.692;8.186;2023-09-18T06:31:04;8.07;;;1.00;;
59530;SDS011;45349;48.692;8.186;2023-09-18T06:33:30;6.37;;;0.80;;
59530;SDS011;45349;48.692;8.186;2023-09-18T06:35:58;7.33;;;0.87;;
59530;SDS011;45349;48.692;8.186;2023-09-18T06:38:25;3.33;;;0.80;;
59530;SDS011;45349;48.692;8.186;2023-09-18T06:40:58;3.20;;;0.70;;
59530;SDS011;45349;48.692;8.186;2023-09-18T06:43:25;4.60;;;0.90;;
59530;SDS011;45349;48.692;8.186;2023-09-18T06:46:17;3.77;;;1.03;;
59530;SDS011;45349;48.692;8.186;2023-09-18T06:48:44;3.87;;;0.87;;
59530;SDS011;45349;48.692;8.186;2023-09-18T06:51:14;4.17;;;0.87;;
59530;SDS011;45349;48.692;8.186;2023-09-18T06:53:41;2.47;;;1.00;;
59530;SDS011;45349;48.692;8.186;2023-09-18T06:56:09;3.47;;;0.80;;
59530;SDS011;45349;48.692;8.186;2023-09-18T06:58:35;4.43;;;0.90;;
59530;SDS011;45349;48.692;8.186;2023-09-18T07:01:02;4.80;;;0.73;;
59530;SDS011;45349;48.692;8.186;2023-09-18T07:03:33;2.13;;;0.80;;
59530;SDS011;45349;48.692;8.186;2023-09-18T07:06:01;2.77;;;0.67;;
59530;SDS011;45349;48.692;8.186;2023-09-18T07:08:29;3.87;;;0.93;;
59530;SDS011;45349;48.692;8.186;2023-09-18T07:10:58;4.77;;;0.60;;
59530;SDS011;45349;48.692;8.186;2023-09-18T07:13:25;1.57;;;0.60;;
59530;SDS011;45349;48.692;8.186;2023-09-18T07:16:16;5.87;;;0.80;;
59530;SDS011;45349;48.692;8.186;2023-09-18T07:18:45;2.80;;;0.67;;
59530;SDS011;45349;48.692;8.186;2023-09-18T07:21:11;2.20;;;0.70;;
59530;SDS011;45349;48.692;8.186;2023-09-18T07:23:39;2.47;;;1.00;;
59530;SDS011;45349;48.692;8.186;2023-09-18T07:26:06;5.83;;;1.23;;
59530;SDS011;45349;48.692;8.186;2023-09-18T07:28:32;3.97;;;0.67;;
59530;SDS011;45349;48.692;8.186;2023-09-18T07:31:04;3.77;;;0.83;;
59530;SDS011;45349;48.692;8.186;2023-09-18T07:33:31;4.80;;;0.77;;
59530;SDS011;45349;48.692;8.186;2023-09-18T07:35:59;3.03;;;0.73;;
59530;SDS011;45349;48.692;8.186;2023-09-18T07:38:26;3.47;;;1.00;;
59530;SDS011;45349;48.692;8.186;2023-09-18T07:40:58;3.43;;;0.90;;
59530;SDS011;45349;48.692;8.186;2023-09-18T07:43:25;2.80;;;0.90;;
59530;SDS011;45349;48.692;8.186;2023-09-18T07:46:16;3.17;;;0.73;;
59530;SDS011;45349;48.692;8.186;2023-09-18T07:48:43;4.73;;;0.90;;
59530;SDS011;45349;48.692;8.186;2023-09-18T07:51:11;4.83;;;1.13;;
59530;SDS011;45349;48.692;8.186;2023-09-18T07:53:39;5.47;;;1.13;;
59530;SDS011;45349;48.692;8.186;2023-09-18T07:56:05;5.60;;;1.00;;
59530;SDS011;45349;48.692;8.186;2023-09-18T07:58:33;6.10;;;1.20;;
59530;SDS011;45349;48.692;8.186;2023-09-18T08:01:03;5.23;;;1.13;;
59530;SDS011;45349;48.692;8.186;2023-09-18T08:03:31;2.67;;;1.03;;
59530;SDS011;45349;48.692;8.186;2023-09-18T08:05:58;8.57;;;1.23;;
59530;SDS011;45349;48.692;8.186;2023-09-18T08:08:26;7.57;;;0.90;;
59530;SDS011;45349;48.692;8.186;2023-09-18T08:10:58;6.47;;;1.20;;
59530;SDS011;45349;48.692;8.186;2023-09-18T08:13:27;3.80;;;1.20;;
59530;SDS011;45349;48.692;8.186;2023-09-18T08:15:58;6.03;;;1.03;;
59530;SDS011;45349;48.692;8.186;2023-09-18T08:18:25;4.30;;;0.97;;
59530;SDS011;45349;48.692;8.186;2023-09-18T08:20:58;2.93;;;0.83;;
59530;SDS011;45349;48.692;8.186;2023-09-18T08:23:26;4.10;;;0.97;;
59530;SDS011;45349;48.692;8.186;2023-09-18T08:25:58;5.67;;;1.07;;
59530;SDS011;45349;48.692;8.186;2023-09-18T08:28:25;4.50;;;1.30;;
59530;SDS011;45349;48.692;8.186;2023-09-18T08:31:16;3.27;;;0.80;;
59530;SDS011;45349;48.692;8.186;2023-09-18T08:33:43;4.03;;;0.90;;
59530;SDS011;45349;48.692;8.186;2023-09-18T08:36:09;3.13;;;0.70;;
59530;SDS011;45349;48.692;8.186;2023-09-18T08:38:38;1.67;;;0.80;;
59530;SDS011;45349;48.692;8.186;2023-09-18T08:41:05;2.57;;;0.70;;
59530;SDS011;45349;48.692;8.186;2023-09-18T08:43:34;3.70;;;0.73;;
59530;SDS011;45349;48.692;8.186;2023-09-18T08:46:02;5.73;;;0.90;;
59530;SDS011;45349;48.692;8.186;2023-09-18T08:48:29;6.90;;;1.20;;
59530;SDS011;45349;48.692;8.186;2023-09-18T08:51:00;3.40;;;1.00;;
59530;SDS011;45349;48.692;8.186;2023-09-18T08:53:28;3.80;;;0.80;;
59530;SDS011;45349;48.692;8.186;2023-09-18T08:56:00;1.73;;;0.70;;
59530;SDS011;45349;48.692;8.186;2023-09-18T08:58:28;4.27;;;0.53;;
59530;SDS011;45349;48.692;8.186;2023-09-18T09:00:59;4.23;;;0.80;;
59530;SDS011;45349;48.692;8.186;2023-09-18T09:03:28;3.00;;;0.70;;
59530;SDS011;45349;48.692;8.186;2023-09-18T09:05:58;1.73;;;0.70;;
59530;SDS011;45349;48.692;8.186;2023-09-18T09:08:26;4.67;;;0.63;;
59530;SDS011;45349;48.692;8.186;2023-09-18T09:10:59;4.13;;;0.77;;
59530;SDS011;45349;48.692;8.186;2023-09-18T09:13:26;2.53;;;0.80;;
59530;SDS011;45349;48.692;8.186;2023-09-18T09:15:58;3.30;;;0.70;;
59530;SDS011;45349;48.692;8.186;2023-09-18T09:18:26;2.17;;;0.90;;
59530;SDS011;45349;48.692;8.186;2023-09-18T09:20:59;3.53;;;0.87;;
59530;SDS011;45349;48.692;8.186;2023-09-18T09:23:41;2.23;;;0.80;;
59530;SDS011;45349;48.692;8.186;2023-09-18T09:26:16;3.87;;;0.60;;
59530;SDS011;45349;48.692;8.186;2023-09-18T09:28:44;2.73;;;0.83;;
59530;SDS011;45349;48.692;8.186;2023-09-18T09:31:11;4.03;;;0.87;;
59530;SDS011;45349;48.692;8.186;2023-09-18T09:33:50;4.00;;;0.70;;
59530;SDS011;45349;48.692;8.186;2023-09-18T09:36:18;2.87;;;0.60;;
59530;SDS011;45349;48.692;8.186;2023-09-18T09:38:45;2.53;;;0.70;;
59530;SDS011;45349;48.692;8.186;2023-09-18T09:41:13;2.33;;;0.73;;
59530;SDS011;45349;48.692;8.186;2023-09-18T09:43:42;4.37;;;0.80;;
59530;SDS011;45349;48.692;8.186;2023-09-18T09:46:14;2.17;;;0.70;;
59530;SDS011;45349;48.692;8.186;2023-09-18T09:48:56;1.50;;;0.50;;
59530;SDS011;45349;48.692;8.186;2023-09-18T09:51:24;2.67;;;0.63;;
59530;SDS011;45349;48.692;8.186;2023-09-18T09:53:51;4.33;;;0.73;;
59530;SDS011;45349;48.692;8.186;2023-09-18T09:56:17;4.43;;;1.10;;
59530;SDS011;45349;48.692;8.186;2023-09-18T09:59:00;2.83;;;0.63;;
59530;SDS011;45349;48.692;8.186;2023-09-18T10:01:29;1.93;;;0.70;;
59530;SDS011;45349;48.692;8.186;2023-09-18T10:03:57;4.00;;;0.70;;
59530;SDS011;45349;48.692;8.186;2023-09-18T10:06:26;3.13;;;0.70;;
59530;SDS011;45349;48.692;8.186;2023-09-18T10:08:55;1.13;;;0.63;;
59530;SDS011;45349;48.692;8.186;2023-09-18T10:11:22;3.77;;;0.97;;
59530;SDS011;45349;48.692;8.186;2023-09-18T10:13:53;3.63;;;0.63;;
59530;SDS011;45349;48.692;8.186;2023-09-18T10:16:25;1.73;;;0.53;;
59530;SDS011;45349;48.692;8.186;2023-09-18T10:19:00;1.87;;;0.63;;
59530;SDS011;45349;48.692;8.186;2023-09-18T10:21:37;2.57;;;0.60;;
59530;SDS011;45349;48.692;8.186;2023-09-18T10:24:10;4.50;;;1.00;;
59530;SDS011;45349;48.692;8.186;2023-09-18T10:26:44;2.10;;;0.60;;
59530;SDS011;45349;48.692;8.186;2023-09-18T10:29:16;4.73;;;0.80;;
59530;SDS011;45349;48.692;8.186;2023-09-18T10:31:47;2.70;;;0.73;;
59530;SDS011;45349;48.692;8.186;2023-09-18T10:34:16;2.17;;;0.80;;
59530;SDS011;45349;48.692;8.186;2023-09-18T10:36:44;4.33;;;0.70;;
59530;SDS011;45349;48.692;8.186;2023-09-18T10:39:13;3.93;;;0.70;;
59530;SDS011;45349;48.692;8.186;2023-09-18T10:41:46;2.27;;;0.50;;
59530;SDS011;45349;48.692;8.186;2023-09-18T10:44:13;1.47;;;0.50;;
59530;SDS011;45349;48.692;8.186;2023-09-18T10:46:42;0.97;;;0.40;;
59530;SDS011;45349;48.692;8.186;2023-09-18T10:49:10;1.73;;;0.60;;
59530;SDS011;45349;48.692;8.186;2023-09-18T10:51:37;3.27;;;0.60;;
59530;SDS011;45349;48.692;8.186;2023-09-18T10:54:07;1.47;;;0.40;;
59530;SDS011;45349;48.692;8.186;2023-09-18T10:56:34;2.67;;;0.70;;
59530;SDS011;45349;48.692;8.186;2023-09-18T10:59:01;3.27;;;0.60;;
59530;SDS011;45349;48.692;8.186;2023-09-18T11:01:30;3.70;;;0.63;;
59530;SDS011;45349;48.692;8.186;2023-09-18T11:03:57;1.80;;;0.47;;
59530;SDS011;45349;48.692;8.186;2023-09-18T11:06:27;3.80;;;0.90;;
59530;SDS011;45349;48.692;8.186;2023-09-18T11:08:59;3.33;;;0.80;;
59530;SDS011;45349;48.692;8.186;2023-09-18T11:11:29;1.90;;;0.60;;
59530;SDS011;45349;48.692;8.186;2023-09-18T11:13:58;2.77;;;0.90;;
59530;SDS011;45349;48.692;8.186;2023-09-18T11:16:34;1.90;;;0.60;;
59530;SDS011;45349;48.692;8.186;2023-09-18T11:19:11;3.13;;;0.60;;
59530;SDS011;45349;48.692;8.186;2023-09-18T11:21:41;1.40;;;0.57;;
59530;SDS011;45349;48.692;8.186;2023-09-18T11:24:16;2.93;;;0.80;;
59530;SDS011;45349;48.692;8.186;2023-09-18T11:26:45;3.63;;;0.70;;
59530;SDS011;45349;48.692;8.186;2023-09-18T11:29:21;1.20;;;0.67;;
59530;SDS011;45349;48.692;8.186;2023-09-18T11:31:50;2.33;;;0.80;;
59530;SDS011;45349;48.692;8.186;2023-09-18T11:34:22;4.10;;;0.70;;
59530;SDS011;45349;48.692;8.186;2023-09-18T11:36:54;4.27;;;0.90;;
59530;SDS011;45349;48.692;8.186;2023-09-18T11:39:34;1.80;;;0.57;;
59530;SDS011;45349;48.692;8.186;2023-09-18T11:42:08;2.43;;;0.60;;
59530;SDS011;45349;48.692;8.186;2023-09-18T11:44:37;2.20;;;0.70;;
59530;SDS011;45349;48.692;8.186;2023-09-18T11:47:11;2.93;;;0.70;;
59530;SDS011;45349;48.692;8.186;2023-09-18T11:49:45;3.80;;;0.63;;
59530;SDS011;45349;48.692;8.186;2023-09-18T11:52:15;1.67;;;0.60;;
59530;SDS011;45349;48.692;8.186;2023-09-18T11:54:43;2.90;;;0.90;;
59530;SDS011;45349;48.692;8.186;2023-09-18T11:57:12;2.70;;;0.90;;
59530;SDS011;45349;48.692;8.186;2023-09-18T11:59:39;2.03;;;0.50;;
59530;SDS011;45349;48.692;8.186;2023-09-18T12:02:07;2.37;;;0.70;;
59530;SDS011;45349;48.692;8.186;2023-09-18T12:04:35;3.30;;;0.70;;
59530;SDS011;45349;48.692;8.186;2023-09-18T12:07:03;2.63;;;0.63;;
59530;SDS011;45349;48.692;8.186;2023-09-18T12:09:32;2.63;;;0.60;;
59530;SDS011;45349;48.692;8.186;2023-09-18T12:11:59;1.53;;;0.70;;
59530;SDS011;45349;48.692;8.186;2023-09-18T12:14:30;5.30;;;0.80;;
59530;SDS011;45349;48.692;8.186;2023-09-18T12:16:58;3.90;;;1.03;;
59530;SDS011;45349;48.692;8.186;2023-09-18T12:19:25;3.83;;;0.60;;
59530;SDS011;45349;48.692;8.186;2023-09-18T12:21:52;2.40;;;0.80;;
59530;SDS011;45349;48.692;8.186;2023-09-18T12:24:20;1.87;;;0.77;;
59530;SDS011;45349;48.692;8.186;2023-09-18T12:26:49;3.80;;;0.77;;
59530;SDS011;45349;48.692;8.186;2023-09-18T12:29:16;3.17;;;1.00;;
59530;SDS011;45349;48.692;8.186;2023-09-18T12:31:43;1.47;;;0.60;;
59530;SDS011;45349;48.692;8.186;2023-09-18T12:34:14;2.23;;;0.80;;
59530;SDS011;45349;48.692;8.186;2023-09-18T12:36:41;3.37;;;0.70;;
59530;SDS011;45349;48.692;8.186;2023-09-18T12:39:09;2.23;;;0.93;;
59530;SDS011;45349;48.692;8.186;2023-09-18T12:41:36;4.10;;;0.80;;
59530;SDS011;45349;48.692;8.186;2023-09-18T12:44:06;3.50;;;0.70;;
59530;SDS011;45349;48.692;8.186;2023-09-18T12:46:34;3.77;;;0.70;;
59530;SDS011;45349;48.692;8.186;2023-09-18T12:49:14;6.53;;;1.00;;
59530;SDS011;45349;48.692;8.186;2023-09-18T12:51:41;5.63;;;0.77;;
59530;SDS011;45349;48.692;8.186;2023-09-18T12:54:09;2.17;;;0.70;;
59530;SDS011;45349;48.692;8.186;2023-09-18T12:56:41;3.33;;;0.87;;
59530;SDS011;45349;48.692;8.186;2023-09-18T12:59:09;3.03;;;0.73;;
59530;SDS011;45349;48.692;8.186;2023-09-18T13:01:38;4.10;;;1.00;;
59530;SDS011;45349;48.692;8.186;2023-09-18T13:04:06;2.40;;;0.70;;
59530;SDS011;45349;48.692;8.186;2023-09-18T13:06:38;3.80;;;0.90;;
59530;SDS011;45349;48.692;8.186;2023-09-18T13:09:17;3.70;;;0.70;;
59530;SDS011;45349;48.692;8.186;2023-09-18T13:11:53;2.57;;;0.60;;
59530;SDS011;45349;48.692;8.186;2023-09-18T13:14:22;1.77;;;0.70;;
59530;SDS011;45349;48.692;8.186;2023-09-18T13:16:49;1.73;;;0.70;;
59530;SDS011;45349;48.692;8.186;2023-09-18T13:19:16;3.30;;;0.93;;
59530;SDS011;45349;48.692;8.186;2023-09-18T13:21:47;1.70;;;0.87;;
59530;SDS011;45349;48.692;8.186;2023-09-18T13:24:24;4.33;;;0.80;;
59530;SDS011;45349;48.692;8.186;2023-09-18T13:26:52;4.13;;;0.90;;
59530;SDS011;45349;48.692;8.186;2023-09-18T13:29:19;2.87;;;0.77;;
59530;SDS011;45349;48.692;8.186;2023-09-18T13:31:47;2.27;;;0.80;;
59530;SDS011;45349;48.692;8.186;2023-09-18T13:34:15;3.03;;;1.00;;
59530;SDS011;45349;48.692;8.186;2023-09-18T13:36:43;5.23;;;0.80;;
59530;SDS011;45349;48.692;8.186;2023-09-18T13:39:10;3.63;;;0.90;;
59530;SDS011;45349;48.692;8.186;2023-09-18T13:41:37;3.37;;;0.80;;
59530;SDS011;45349;48.692;8.186;2023-09-18T13:44:04;3.50;;;1.17;;
59530;SDS011;45349;48.692;8.186;2023-09-18T13:46:31;2.20;;;0.93;;
59530;SDS011;45349;48.692;8.186;2023-09-18T13:49:02;3.57;;;0.90;;
59530;SDS011;45349;48.692;8.186;2023-09-18T13:51:30;2.30;;;0.80;;
59530;SDS011;45349;48.692;8.186;2023-09-18T13:53:57;2.30;;;0.57;;
59530;SDS011;45349;48.692;8.186;2023-09-18T13:56:24;7.47;;;1.20;;
59530;SDS011;45349;48.692;8.186;2023-09-18T13:58:53;2.50;;;0.70;;
59530;SDS011;45349;48.692;8.186;2023-09-18T14:01:20;1.90;;;0.83;;
59530;SDS011;45349;48.692;8.186;2023-09-18T14:03:47;1.23;;;0.73;;
59530;SDS011;45349;48.692;8.186;2023-09-18T14:06:17;2.50;;;0.60;;
59530;SDS011;45349;48.692;8.186;2023-09-18T14:08:43;1.83;;;0.83;;
59530;SDS011;45349;48.692;8.186;2023-09-18T14:11:10;2.40;;;0.70;;
59530;SDS011;45349;48.692;8.186;2023-09-18T14:13:37;2.43;;;0.80;;
59530;SDS011;45349;48.692;8.186;2023-09-18T14:16:04;4.53;;;1.30;;
59530;SDS011;45349;48.692;8.186;2023-09-18T14:18:31;4.17;;;0.60;;
59530;SDS011;45349;48.692;8.186;2023-09-18T14:20:58;2.70;;;0.70;;
59530;SDS011;45349;48.692;8.186;2023-09-18T14:23:26;3.43;;;0.80;;
59530;SDS011;45349;48.692;8.186;2023-09-18T14:25:58;1.53;;;0.50;;
59530;SDS011;45349;48.692;8.186;2023-09-18T14:28:26;1.43;;;0.80;;
59530;SDS011;45349;48.692;8.186;2023-09-18T14:30:59;3.73;;;0.90;;
59530;SDS011;45349;48.692;8.186;2023-09-18T14:33:28;2.57;;;0.93;;
59530;SDS011;45349;48.692;8.186;2023-09-18T14:35:58;2.70;;;0.70;;
59530;SDS011;45349;48.692;8.186;2023-09-18T14:38:26;2.23;;;0.70;;
59530;SDS011;45349;48.692;8.186;2023-09-18T14:40:59;2.73;;;0.83;;
59530;SDS011;45349;48.692;8.186;2023-09-18T14:43:28;4.50;;;0.90;;
59530;SDS011;45349;48.692;8.186;2023-09-18T14:45:58;1.77;;;1.00;;
59530;SDS011;45349;48.692;8.186;2023-09-18T14:48:25;3.07;;;0.90;;
59530;SDS011;45349;48.692;8.186;2023-09-18T14:50:58;3.27;;;1.10;;
59530;SDS011;45349;48.692;8.186;2023-09-18T14:53:26;2.10;;;0.70;;
59530;SDS011;45349;48.692;8.186;2023-09-18T14:55:59;1.90;;;0.80;;
59530;SDS011;45349;48.692;8.186;2023-09-18T14:58:26;1.57;;;0.90;;
59530;SDS011;45349;48.692;8.186;2023-09-18T15:01:17;1.77;;;0.73;;
59530;SDS011;45349;48.692;8.186;2023-09-18T15:03:45;3.90;;;0.80;;
59530;SDS011;45349;48.692;8.186;2023-09-18T15:06:12;2.90;;;0.90;;